Airfield :
LOGIN :

Register | Disclaimer

   EN    FR    IT 

 










Legend :    VFR   Marginal VFR   IFR   Intensive IFR   Very Intensive IFR
Visi :
Ceiling :
>= 8 km
>= 3000ft
5 to 8 km
1000 to 3000 ft
1500m to 5 km
500 to 1000 ft
800 to 1500m
200 to 500 ft
< 800m
< 200 ft
Symbols :   Thunderstorms  Fog  Heavy snow  Heavy precipitations  Wind > 20 kt
SIGMETs :     Misc.  Thunderstorms  Icing  Turbulence  Mountain Waves  Volcanic Ashes






- Airport Elevation : 84 ft


LFBC - Cazaux

CURRENT METAR :
  • 152100Z AUTO 19006KT CAVOK 05/04 Q1006

EXPIRED METARs :
  • 152030Z AUTO 20003KT 5000 BR NSC 03/02 Q1005
  • 152000Z AUTO 00000KT 7000 2200 NSC 03/03 Q1005
  • 151930Z AUTO 00000KT 7000 NSC 04/04 Q1005
  • 151900Z AUTO 00000KT 9000 NSC 04/03 Q1005
  • 151830Z AUTO 22001KT 9000 ///TCU 04/03 Q1005

TAF TAF LFBC
Valid from the 15 at 15:00 until the 16 at 15:00 UTC


151400Z 1515/1615 05005KT 9999 SCT018 BKN040
BECMG 1523/1601 26010KT SCT030TCU
TEMPO 1523/1615 31015G30KT 4000 SHRA BKN025TCU
PROB30
TEMPO 1603/1615 VRB20G35KT 2000 TSRA BKN015CB



MET'MAP, your aeronautical weather chart ! - Copyright ORBIFLY December 2007 - Disclaimer

ORBIFLY MET'MAP TEAM :

Programming & Development : Alexandra Zaïnal
Concept & Development : Baudouin d'Aumeries
Co-Development & Prog : Marc-Olivier Méhu
Technical & hardware support : Manuel Goepfert

Contact : metmap@orbifly.com




SOURCES & CREDITS :

   NOAA